sensor_id;sensor_type;location;lat;lon;timestamp;temperature;humidity
10964;DHT22;5534;48.784;9.190;2023-02-28T00:01:26;3.20;99.90
10964;DHT22;5534;48.784;9.190;2023-02-28T00:03:52;3.30;99.90
10964;DHT22;5534;48.784;9.190;2023-02-28T00:06:18;3.10;99.90
10964;DHT22;5534;48.784;9.190;2023-02-28T00:08:45;3.10;99.90
10964;DHT22;5534;48.784;9.190;2023-02-28T00:11:13;3.10;99.90
10964;DHT22;5534;48.784;9.190;2023-02-28T00:13:42;3.10;99.90
10964;DHT22;5534;48.784;9.190;2023-02-28T00:16:21;3.10;99.90
10964;DHT22;5534;48.784;9.190;2023-02-28T00:18:48;3.10;99.90
10964;DHT22;5534;48.784;9.190;2023-02-28T00:21:15;2.50;99.90
10964;DHT22;5534;48.784;9.190;2023-02-28T00:23:41;2.70;99.90
10964;DHT22;5534;48.784;9.190;2023-02-28T00:26:06;2.90;99.90
10964;DHT22;5534;48.784;9.190;2023-02-28T00:28:32;3.10;99.90
10964;DHT22;5534;48.784;9.190;2023-02-28T00:30:58;3.00;99.90
10964;DHT22;5534;48.784;9.190;2023-02-28T00:33:25;3.00;99.90
10964;DHT22;5534;48.784;9.190;2023-02-28T00:35:51;3.10;99.90
10964;DHT22;5534;48.784;9.190;2023-02-28T00:38:17;2.80;99.90
10964;DHT22;5534;48.784;9.190;2023-02-28T00:40:43;2.80;99.90
10964;DHT22;5534;48.784;9.190;2023-02-28T00:43:09;2.70;99.90
10964;DHT22;5534;48.784;9.190;2023-02-28T00:45:34;2.80;99.90
10964;DHT22;5534;48.784;9.190;2023-02-28T00:48:00;2.80;99.90
10964;DHT22;5534;48.784;9.190;2023-02-28T00:50:26;2.70;99.90
10964;DHT22;5534;48.784;9.190;2023-02-28T00:52:52;2.90;99.90
10964;DHT22;5534;48.784;9.190;2023-02-28T00:55:17;2.90;99.90
10964;DHT22;5534;48.784;9.190;2023-02-28T00:57:44;2.90;99.90
10964;DHT22;5534;48.784;9.190;2023-02-28T01:00:10;2.70;99.90
10964;DHT22;5534;48.784;9.190;2023-02-28T01:02:36;2.90;99.90
10964;DHT22;5534;48.784;9.190;2023-02-28T01:05:02;2.90;99.90
10964;DHT22;5534;48.784;9.190;2023-02-28T01:07:28;2.90;99.90
10964;DHT22;5534;48.784;9.190;2023-02-28T01:09:54;2.70;99.90
10964;DHT22;5534;48.784;9.190;2023-02-28T01:12:20;2.10;99.90
10964;DHT22;5534;48.784;9.190;2023-02-28T01:14:46;2.20;99.90
10964;DHT22;5534;48.784;9.190;2023-02-28T01:17:11;2.50;99.90
10964;DHT22;5534;48.784;9.190;2023-02-28T01:19:37;2.80;99.90
10964;DHT22;5534;48.784;9.190;2023-02-28T01:22:04;2.80;99.90
10964;DHT22;5534;48.784;9.190;2023-02-28T01:24:30;2.90;99.90
10964;DHT22;5534;48.784;9.190;2023-02-28T01:26:56;2.70;99.90
10964;DHT22;5534;48.784;9.190;2023-02-28T01:29:22;2.80;99.90
10964;DHT22;5534;48.784;9.190;2023-02-28T01:31:48;2.80;99.90
10964;DHT22;5534;48.784;9.190;2023-02-28T01:34:13;2.50;99.90
10964;DHT22;5534;48.784;9.190;2023-02-28T01:36:39;2.70;99.90
10964;DHT22;5534;48.784;9.190;2023-02-28T01:39:05;2.80;99.90
10964;DHT22;5534;48.784;9.190;2023-02-28T01:41:34;2.70;99.90
10964;DHT22;5534;48.784;9.190;2023-02-28T01:44:03;2.50;99.90
10964;DHT22;5534;48.784;9.190;2023-02-28T01:46:34;2.40;99.90
10964;DHT22;5534;48.784;9.190;2023-02-28T01:49:01;2.60;99.90
10964;DHT22;5534;48.784;9.190;2023-02-28T01:51:37;2.50;99.90
10964;DHT22;5534;48.784;9.190;2023-02-28T01:54:09;2.50;99.90
10964;DHT22;5534;48.784;9.190;2023-02-28T01:56:43;2.40;99.90
10964;DHT22;5534;48.784;9.190;2023-02-28T01:59:13;2.50;99.90
10964;DHT22;5534;48.784;9.190;2023-02-28T02:01:40;2.70;99.90
10964;DHT22;5534;48.784;9.190;2023-02-28T02:04:06;2.80;99.90
10964;DHT22;5534;48.784;9.190;2023-02-28T02:06:40;1.90;99.90
10964;DHT22;5534;48.784;9.190;2023-02-28T02:09:07;1.90;99.90
10964;DHT22;5534;48.784;9.190;2023-02-28T02:11:34;2.20;99.90
10964;DHT22;5534;48.784;9.190;2023-02-28T02:28:00;2.70;99.90
10964;DHT22;5534;48.784;9.190;2023-02-28T02:30:41;2.80;99.90
10964;DHT22;5534;48.784;9.190;2023-02-28T02:33:17;2.70;99.90
10964;DHT22;5534;48.784;9.190;2023-02-28T02:35:54;2.80;99.90
10964;DHT22;5534;48.784;9.190;2023-02-28T02:41:19;2.80;99.90
10964;DHT22;5534;48.784;9.190;2023-02-28T02:43:52;2.70;99.90
10964;DHT22;5534;48.784;9.190;2023-02-28T02:46:28;2.60;99.90
10964;DHT22;5534;48.784;9.190;2023-02-28T02:48:56;2.70;99.90
10964;DHT22;5534;48.784;9.190;2023-02-28T02:51:28;2.70;99.90
10964;DHT22;5534;48.784;9.190;2023-02-28T02:54:08;2.70;99.90
10964;DHT22;5534;48.784;9.190;2023-02-28T02:56:36;2.70;99.90
10964;DHT22;5534;48.784;9.190;2023-02-28T02:59:07;2.70;99.90
10964;DHT22;5534;48.784;9.190;2023-02-28T03:01:35;2.70;99.90
10964;DHT22;5534;48.784;9.190;2023-02-28T03:04:19;2.70;99.90
10964;DHT22;5534;48.784;9.190;2023-02-28T03:06:45;2.60;99.90
10964;DHT22;5534;48.784;9.190;2023-02-28T03:09:10;2.70;99.90
10964;DHT22;5534;48.784;9.190;2023-02-28T03:11:37;2.70;99.90
10964;DHT22;5534;48.784;9.190;2023-02-28T03:20:26;2.60;99.90
10964;DHT22;5534;48.784;9.190;2023-02-28T03:23:16;2.60;99.90
10964;DHT22;5534;48.784;9.190;2023-02-28T03:26:02;2.70;99.90
10964;DHT22;5534;48.784;9.190;2023-02-28T03:28:31;2.70;99.90
10964;DHT22;5534;48.784;9.190;2023-02-28T03:31:03;2.80;99.90
10964;DHT22;5534;48.784;9.190;2023-02-28T03:36:32;2.80;99.90
10964;DHT22;5534;48.784;9.190;2023-02-28T03:39:11;2.80;99.90
10964;DHT22;5534;48.784;9.190;2023-02-28T03:41:43;2.70;99.90
10964;DHT22;5534;48.784;9.190;2023-02-28T03:47:09;2.70;99.90
10964;DHT22;5534;48.784;9.190;2023-02-28T03:49:45;2.70;99.90
10964;DHT22;5534;48.784;9.190;2023-02-28T03:52:14;2.70;99.90
10964;DHT22;5534;48.784;9.190;2023-02-28T03:54:47;2.70;99.90
10964;DHT22;5534;48.784;9.190;2023-02-28T03:57:27;2.70;99.90
10964;DHT22;5534;48.784;9.190;2023-02-28T04:00:38;2.80;99.90
10964;DHT22;5534;48.784;9.190;2023-02-28T04:02:56;2.80;99.90
10964;DHT22;5534;48.784;9.190;2023-02-28T04:05:23;2.80;99.90
10964;DHT22;5534;48.784;9.190;2023-02-28T04:07:49;2.80;99.90
10964;DHT22;5534;48.784;9.190;2023-02-28T04:10:16;2.80;99.90
10964;DHT22;5534;48.784;9.190;2023-02-28T04:12:42;2.70;99.90
10964;DHT22;5534;48.784;9.190;2023-02-28T04:15:08;2.80;99.90
10964;DHT22;5534;48.784;9.190;2023-02-28T04:17:36;2.80;99.90
10964;DHT22;5534;48.784;9.190;2023-02-28T04:20:02;2.80;99.90
10964;DHT22;5534;48.784;9.190;2023-02-28T04:22:29;2.80;99.90
10964;DHT22;5534;48.784;9.190;2023-02-28T04:25:04;2.80;99.90
10964;DHT22;5534;48.784;9.190;2023-02-28T04:27:34;2.90;99.90
10964;DHT22;5534;48.784;9.190;2023-02-28T04:30:00;2.80;99.90
10964;DHT22;5534;48.784;9.190;2023-02-28T04:32:26;2.80;99.90
10964;DHT22;5534;48.784;9.190;2023-02-28T04:34:51;2.80;99.90
10964;DHT22;5534;48.784;9.190;2023-02-28T04:37:17;2.80;99.90
10964;DHT22;5534;48.784;9.190;2023-02-28T04:39:43;2.90;99.90
10964;DHT22;5534;48.784;9.190;2023-02-28T04:42:10;2.80;99.90
10964;DHT22;5534;48.784;9.190;2023-02-28T04:44:36;2.80;99.90
10964;DHT22;5534;48.784;9.190;2023-02-28T04:47:01;2.70;99.90
10964;DHT22;5534;48.784;9.190;2023-02-28T04:49:27;2.70;99.90
10964;DHT22;5534;48.784;9.190;2023-02-28T04:51:53;2.70;99.90
10964;DHT22;5534;48.784;9.190;2023-02-28T04:54:19;2.70;99.90
10964;DHT22;5534;48.784;9.190;2023-02-28T04:56:45;2.60;99.90
10964;DHT22;5534;48.784;9.190;2023-02-28T04:59:11;2.50;99.90
10964;DHT22;5534;48.784;9.190;2023-02-28T05:01:37;2.40;99.90
10964;DHT22;5534;48.784;9.190;2023-02-28T05:04:03;2.60;99.90
10964;DHT22;5534;48.784;9.190;2023-02-28T05:06:32;2.60;99.90
10964;DHT22;5534;48.784;9.190;2023-02-28T05:08:58;2.70;99.90
10964;DHT22;5534;48.784;9.190;2023-02-28T05:11:29;2.80;99.90
10964;DHT22;5534;48.784;9.190;2023-02-28T05:14:03;2.90;99.90
10964;DHT22;5534;48.784;9.190;2023-02-28T05:16:29;2.90;99.90
10964;DHT22;5534;48.784;9.190;2023-02-28T05:18:55;2.90;99.90
10964;DHT22;5534;48.784;9.190;2023-02-28T05:23:53;2.80;99.90
10964;DHT22;5534;48.784;9.190;2023-02-28T05:26:19;2.80;99.90
10964;DHT22;5534;48.784;9.190;2023-02-28T05:28:45;2.80;99.90
10964;DHT22;5534;48.784;9.190;2023-02-28T05:31:12;2.80;99.90
10964;DHT22;5534;48.784;9.190;2023-02-28T05:33:38;2.80;99.90
10964;DHT22;5534;48.784;9.190;2023-02-28T05:36:04;2.90;99.90
10964;DHT22;5534;48.784;9.190;2023-02-28T05:38:30;2.90;99.90
10964;DHT22;5534;48.784;9.190;2023-02-28T05:40:56;3.00;99.90
10964;DHT22;5534;48.784;9.190;2023-02-28T05:43:22;3.00;99.90
10964;DHT22;5534;48.784;9.190;2023-02-28T05:45:47;2.80;99.90
10964;DHT22;5534;48.784;9.190;2023-02-28T05:48:13;2.80;99.90
10964;DHT22;5534;48.784;9.190;2023-02-28T05:50:39;2.70;99.90
10964;DHT22;5534;48.784;9.190;2023-02-28T05:53:05;2.80;99.90
10964;DHT22;5534;48.784;9.190;2023-02-28T05:55:30;2.90;99.90
10964;DHT22;5534;48.784;9.190;2023-02-28T05:57:56;2.90;99.90
10964;DHT22;5534;48.784;9.190;2023-02-28T06:00:22;2.90;99.90
10964;DHT22;5534;48.784;9.190;2023-02-28T06:02:48;2.90;99.90
10964;DHT22;5534;48.784;9.190;2023-02-28T06:05:18;2.90;99.90
10964;DHT22;5534;48.784;9.190;2023-02-28T06:07:44;2.90;99.90
10964;DHT22;5534;48.784;9.190;2023-02-28T06:10:11;2.90;99.90
10964;DHT22;5534;48.784;9.190;2023-02-28T06:12:38;2.90;99.90
10964;DHT22;5534;48.784;9.190;2023-02-28T06:15:04;3.00;99.90
10964;DHT22;5534;48.784;9.190;2023-02-28T06:17:30;3.00;99.90
10964;DHT22;5534;48.784;9.190;2023-02-28T06:19:56;3.10;99.90
10964;DHT22;5534;48.784;9.190;2023-02-28T06:22:22;3.00;99.90
10964;DHT22;5534;48.784;9.190;2023-02-28T06:24:47;2.90;99.90
10964;DHT22;5534;48.784;9.190;2023-02-28T06:27:13;3.00;99.90
10964;DHT22;5534;48.784;9.190;2023-02-28T06:29:39;3.00;99.90
10964;DHT22;5534;48.784;9.190;2023-02-28T06:32:08;3.10;99.90
10964;DHT22;5534;48.784;9.190;2023-02-28T06:34:35;3.10;99.90
10964;DHT22;5534;48.784;9.190;2023-02-28T06:37:01;3.10;99.90
10964;DHT22;5534;48.784;9.190;2023-02-28T06:39:31;3.10;99.90
10964;DHT22;5534;48.784;9.190;2023-02-28T06:41:57;3.10;99.90
10964;DHT22;5534;48.784;9.190;2023-02-28T06:44:23;3.10;99.90
10964;DHT22;5534;48.784;9.190;2023-02-28T06:46:49;3.00;99.90
10964;DHT22;5534;48.784;9.190;2023-02-28T06:49:15;3.10;99.90
10964;DHT22;5534;48.784;9.190;2023-02-28T06:51:43;3.00;99.90
10964;DHT22;5534;48.784;9.190;2023-02-28T06:54:12;3.00;99.90
10964;DHT22;5534;48.784;9.190;2023-02-28T06:56:38;3.00;99.90
10964;DHT22;5534;48.784;9.190;2023-02-28T06:59:04;3.10;99.90
10964;DHT22;5534;48.784;9.190;2023-02-28T07:01:30;3.10;99.90
10964;DHT22;5534;48.784;9.190;2023-02-28T07:03:58;3.20;99.90
10964;DHT22;5534;48.784;9.190;2023-02-28T07:06:24;3.20;99.90
10964;DHT22;5534;48.784;9.190;2023-02-28T07:08:51;3.20;99.90
10964;DHT22;5534;48.784;9.190;2023-02-28T07:11:22;3.20;99.90
10964;DHT22;5534;48.784;9.190;2023-02-28T07:13:49;3.20;99.90
10964;DHT22;5534;48.784;9.190;2023-02-28T07:16:16;3.20;99.90
10964;DHT22;5534;48.784;9.190;2023-02-28T07:18:43;3.60;99.90
10964;DHT22;5534;48.784;9.190;2023-02-28T07:21:10;3.40;99.90
10964;DHT22;5534;48.784;9.190;2023-02-28T07:23:36;3.30;99.90
10964;DHT22;5534;48.784;9.190;2023-02-28T07:26:07;3.40;99.90
10964;DHT22;5534;48.784;9.190;2023-02-28T07:28:36;3.40;99.90
10964;DHT22;5534;48.784;9.190;2023-02-28T07:31:07;3.30;99.90
10964;DHT22;5534;48.784;9.190;2023-02-28T07:33:34;3.40;99.90
10964;DHT22;5534;48.784;9.190;2023-02-28T07:36:05;3.50;99.90
10964;DHT22;5534;48.784;9.190;2023-02-28T07:38:34;3.50;99.90
10964;DHT22;5534;48.784;9.190;2023-02-28T07:41:01;3.60;99.90
10964;DHT22;5534;48.784;9.190;2023-02-28T07:43:30;3.60;99.90
10964;DHT22;5534;48.784;9.190;2023-02-28T07:46:05;3.40;99.90
10964;DHT22;5534;48.784;9.190;2023-02-28T07:48:31;3.40;99.90
10964;DHT22;5534;48.784;9.190;2023-02-28T07:50:58;3.40;99.90
10964;DHT22;5534;48.784;9.190;2023-02-28T07:53:24;3.50;99.90
10964;DHT22;5534;48.784;9.190;2023-02-28T07:55:50;3.40;99.90
10964;DHT22;5534;48.784;9.190;2023-02-28T07:58:16;3.40;99.90
10964;DHT22;5534;48.784;9.190;2023-02-28T08:00:41;3.50;99.90
10964;DHT22;5534;48.784;9.190;2023-02-28T08:03:11;3.50;99.90
10964;DHT22;5534;48.784;9.190;2023-02-28T08:05:40;3.50;99.90
10964;DHT22;5534;48.784;9.190;2023-02-28T08:08:07;3.60;99.90
10964;DHT22;5534;48.784;9.190;2023-02-28T08:10:32;3.70;99.90
10964;DHT22;5534;48.784;9.190;2023-02-28T08:12:58;3.60;99.90
10964;DHT22;5534;48.784;9.190;2023-02-28T08:15:24;3.60;99.90
10964;DHT22;5534;48.784;9.190;2023-02-28T08:17:50;3.60;99.90
10964;DHT22;5534;48.784;9.190;2023-02-28T08:20:15;3.60;99.90
10964;DHT22;5534;48.784;9.190;2023-02-28T08:22:42;3.60;99.90
10964;DHT22;5534;48.784;9.190;2023-02-28T08:25:08;3.60;99.90
10964;DHT22;5534;48.784;9.190;2023-02-28T08:27:35;3.70;99.90
10964;DHT22;5534;48.784;9.190;2023-02-28T08:30:01;3.60;99.90
10964;DHT22;5534;48.784;9.190;2023-02-28T08:32:27;3.70;99.90
10964;DHT22;5534;48.784;9.190;2023-02-28T08:34:52;3.80;99.90
10964;DHT22;5534;48.784;9.190;2023-02-28T08:37:18;3.80;99.90
10964;DHT22;5534;48.784;9.190;2023-02-28T08:39:44;3.70;99.90
10964;DHT22;5534;48.784;9.190;2023-02-28T08:42:10;3.40;99.90
10964;DHT22;5534;48.784;9.190;2023-02-28T08:44:36;3.60;99.90
10964;DHT22;5534;48.784;9.190;2023-02-28T08:47:02;3.70;99.90
10964;DHT22;5534;48.784;9.190;2023-02-28T08:49:27;3.60;99.90
10964;DHT22;5534;48.784;9.190;2023-02-28T08:51:54;3.50;99.90
10964;DHT22;5534;48.784;9.190;2023-02-28T08:54:20;3.60;99.90
10964;DHT22;5534;48.784;9.190;2023-02-28T08:56:47;3.50;99.90
10964;DHT22;5534;48.784;9.190;2023-02-28T08:59:12;3.40;99.90
10964;DHT22;5534;48.784;9.190;2023-02-28T09:01:38;3.70;99.90
10964;DHT22;5534;48.784;9.190;2023-02-28T09:04:04;3.80;99.90
10964;DHT22;5534;48.784;9.190;2023-02-28T09:06:32;3.80;99.90
10964;DHT22;5534;48.784;9.190;2023-02-28T09:08:59;3.80;99.90
10964;DHT22;5534;48.784;9.190;2023-02-28T09:11:27;3.80;99.90
10964;DHT22;5534;48.784;9.190;2023-02-28T09:13:53;3.90;99.90
10964;DHT22;5534;48.784;9.190;2023-02-28T09:16:22;3.80;99.90
10964;DHT22;5534;48.784;9.190;2023-02-28T09:18:48;3.90;99.90
10964;DHT22;5534;48.784;9.190;2023-02-28T09:21:16;4.00;99.90
10964;DHT22;5534;48.784;9.190;2023-02-28T09:23:46;4.00;99.90
10964;DHT22;5534;48.784;9.190;2023-02-28T09:26:17;4.00;99.90
10964;DHT22;5534;48.784;9.190;2023-02-28T09:28:44;3.80;99.90
10964;DHT22;5534;48.784;9.190;2023-02-28T09:31:26;3.80;99.90
10964;DHT22;5534;48.784;9.190;2023-02-28T09:33:55;4.00;99.90
10964;DHT22;5534;48.784;9.190;2023-02-28T09:36:23;4.10;99.90
10964;DHT22;5534;48.784;9.190;2023-02-28T09:38:49;4.10;99.90
10964;DHT22;5534;48.784;9.190;2023-02-28T09:41:25;4.10;99.90
10964;DHT22;5534;48.784;9.190;2023-02-28T09:43:59;4.20;99.90
10964;DHT22;5534;48.784;9.190;2023-02-28T09:46:39;4.20;99.90
10964;DHT22;5534;48.784;9.190;2023-02-28T09:49:42;4.30;99.90
10964;DHT22;5534;48.784;9.190;2023-02-28T09:52:12;4.20;99.90
10964;DHT22;5534;48.784;9.190;2023-02-28T09:54:39;4.20;99.90
10964;DHT22;5534;48.784;9.190;2023-02-28T09:57:11;4.20;99.90
10964;DHT22;5534;48.784;9.190;2023-02-28T10:02:40;4.20;99.90
10964;DHT22;5534;48.784;9.190;2023-02-28T10:05:14;4.10;99.90
10964;DHT22;5534;48.784;9.190;2023-02-28T10:10:39;4.40;99.90
10964;DHT22;5534;48.784;9.190;2023-02-28T10:13:34;4.50;99.90
10964;DHT22;5534;48.784;9.190;2023-02-28T10:16:31;4.50;99.90
10964;DHT22;5534;48.784;9.190;2023-02-28T10:19:05;4.60;99.90
10964;DHT22;5534;48.784;9.190;2023-02-28T10:21:40;4.30;99.90
10964;DHT22;5534;48.784;9.190;2023-02-28T10:24:28;4.10;99.90
10964;DHT22;5534;48.784;9.190;2023-02-28T10:27:00;4.30;99.90
10964;DHT22;5534;48.784;9.190;2023-02-28T10:29:28;4.50;99.90
10964;DHT22;5534;48.784;9.190;2023-02-28T10:31:57;4.60;99.90
10964;DHT22;5534;48.784;9.190;2023-02-28T10:34:24;4.70;99.90
10964;DHT22;5534;48.784;9.190;2023-02-28T10:36:51;4.70;99.90
10964;DHT22;5534;48.784;9.190;2023-02-28T10:42:05;4.70;99.90
10964;DHT22;5534;48.784;9.190;2023-02-28T10:44:46;4.80;99.90
10964;DHT22;5534;48.784;9.190;2023-02-28T10:47:18;4.80;99.90
10964;DHT22;5534;48.784;9.190;2023-02-28T10:49:49;4.80;99.90
10964;DHT22;5534;48.784;9.190;2023-02-28T10:52:33;4.90;99.90
10964;DHT22;5534;48.784;9.190;2023-02-28T10:55:22;5.00;99.90
10964;DHT22;5534;48.784;9.190;2023-02-28T10:57:49;5.10;99.90
10964;DHT22;5534;48.784;9.190;2023-02-28T11:00:21;5.10;99.90
10964;DHT22;5534;48.784;9.190;2023-02-28T11:02:49;5.10;99.90
10964;DHT22;5534;48.784;9.190;2023-02-28T11:05:30;5.20;99.90
10964;DHT22;5534;48.784;9.190;2023-02-28T11:08:20;5.40;99.90
10964;DHT22;5534;48.784;9.190;2023-02-28T11:10:48;5.60;99.90
10964;DHT22;5534;48.784;9.190;2023-02-28T11:13:28;5.70;99.90
10964;DHT22;5534;48.784;9.190;2023-02-28T11:15:58;5.70;99.90
10964;DHT22;5534;48.784;9.190;2023-02-28T11:18:50;5.40;99.90
10964;DHT22;5534;48.784;9.190;2023-02-28T11:21:27;5.40;99.90
10964;DHT22;5534;48.784;9.190;2023-02-28T11:24:02;5.50;99.90
10964;DHT22;5534;48.784;9.190;2023-02-28T11:26:41;5.40;99.90
10964;DHT22;5534;48.784;9.190;2023-02-28T11:31:37;5.80;99.90
10964;DHT22;5534;48.784;9.190;2023-02-28T11:34:23;5.90;99.90
10964;DHT22;5534;48.784;9.190;2023-02-28T11:36:49;5.90;99.90
10964;DHT22;5534;48.784;9.190;2023-02-28T11:39:16;6.00;99.90
10964;DHT22;5534;48.784;9.190;2023-02-28T11:55:39;6.40;99.90
10964;DHT22;5534;48.784;9.190;2023-02-28T11:58:38;6.60;99.90
10964;DHT22;5534;48.784;9.190;2023-02-28T12:09:39;6.60;99.90
10964;DHT22;5534;48.784;9.190;2023-02-28T12:14:56;6.60;99.90
10964;DHT22;5534;48.784;9.190;2023-02-28T12:17:42;6.70;99.90
10964;DHT22;5534;48.784;9.190;2023-02-28T12:20:25;6.60;99.90
10964;DHT22;5534;48.784;9.190;2023-02-28T12:28:35;6.60;99.90
10964;DHT22;5534;48.784;9.190;2023-02-28T12:31:08;6.70;99.90
10964;DHT22;5534;48.784;9.190;2023-02-28T12:33:40;6.90;99.90
10964;DHT22;5534;48.784;9.190;2023-02-28T12:36:11;6.90;99.90
10964;DHT22;5534;48.784;9.190;2023-02-28T12:38:47;7.00;99.90
10964;DHT22;5534;48.784;9.190;2023-02-28T12:41:20;7.20;99.90
10964;DHT22;5534;48.784;9.190;2023-02-28T12:43:55;7.30;99.90
10964;DHT22;5534;48.784;9.190;2023-02-28T12:46:37;7.30;99.90
10964;DHT22;5534;48.784;9.190;2023-02-28T12:49:17;7.40;99.90
10964;DHT22;5534;48.784;9.190;2023-02-28T12:51:45;7.50;99.90
10964;DHT22;5534;48.784;9.190;2023-02-28T12:57:01;7.60;99.90
10964;DHT22;5534;48.784;9.190;2023-02-28T12:59:42;7.60;99.90
10964;DHT22;5534;48.784;9.190;2023-02-28T13:10:48;7.90;99.90
10964;DHT22;5534;48.784;9.190;2023-02-28T13:13:26;7.90;99.90
10964;DHT22;5534;48.784;9.190;2023-02-28T13:18:46;7.90;99.50
10964;DHT22;5534;48.784;9.190;2023-02-28T13:21:29;7.90;99.00
10964;DHT22;5534;48.784;9.190;2023-02-28T13:24:00;7.80;99.20
10964;DHT22;5534;48.784;9.190;2023-02-28T13:39:51;8.10;98.70
10964;DHT22;5534;48.784;9.190;2023-02-28T13:48:00;8.20;98.30
10964;DHT22;5534;48.784;9.190;2023-02-28T13:55:46;8.10;98.40
10964;DHT22;5534;48.784;9.190;2023-02-28T13:58:40;8.00;98.40
10964;DHT22;5534;48.784;9.190;2023-02-28T14:01:28;7.80;98.50
10964;DHT22;5534;48.784;9.190;2023-02-28T14:04:12;7.50;98.30
10964;DHT22;5534;48.784;9.190;2023-02-28T14:06:48;7.80;98.80
10964;DHT22;5534;48.784;9.190;2023-02-28T14:09:40;7.80;98.90
10964;DHT22;5534;48.784;9.190;2023-02-28T14:12:51;7.90;98.70
10964;DHT22;5534;48.784;9.190;2023-02-28T14:18:17;7.70;98.80
10964;DHT22;5534;48.784;9.190;2023-02-28T14:20:45;8.00;98.70
10964;DHT22;5534;48.784;9.190;2023-02-28T14:23:30;8.20;98.20
10964;DHT22;5534;48.784;9.190;2023-02-28T14:31:23;8.00;98.10
10964;DHT22;5534;48.784;9.190;2023-02-28T14:34:35;8.20;98.20
10964;DHT22;5534;48.784;9.190;2023-02-28T14:37:02;8.20;97.70
10964;DHT22;5534;48.784;9.190;2023-02-28T14:39:30;8.00;97.90
10964;DHT22;5534;48.784;9.190;2023-02-28T14:41:57;7.90;98.10
10964;DHT22;5534;48.784;9.190;2023-02-28T14:44:28;7.90;98.30
10964;DHT22;5534;48.784;9.190;2023-02-28T14:46:56;7.90;98.30
10964;DHT22;5534;48.784;9.190;2023-02-28T14:49:41;7.90;98.30
10964;DHT22;5534;48.784;9.190;2023-02-28T14:52:20;8.10;98.20
10964;DHT22;5534;48.784;9.190;2023-02-28T14:54:46;7.80;98.30
10964;DHT22;5534;48.784;9.190;2023-02-28T15:02:38;7.70;98.50
10964;DHT22;5534;48.784;9.190;2023-02-28T15:08:02;7.90;98.80
10964;DHT22;5534;48.784;9.190;2023-02-28T15:10:30;7.90;98.60
10964;DHT22;5534;48.784;9.190;2023-02-28T15:12:58;7.90;98.70
10964;DHT22;5534;48.784;9.190;2023-02-28T15:15:41;7.90;98.60
10964;DHT22;5534;48.784;9.190;2023-02-28T15:18:14;7.90;98.80
10964;DHT22;5534;48.784;9.190;2023-02-28T15:20:42;7.90;98.60
10964;DHT22;5534;48.784;9.190;2023-02-28T15:23:10;7.90;99.20
10964;DHT22;5534;48.784;9.190;2023-02-28T15:25:36;7.90;98.90
10964;DHT22;5534;48.784;9.190;2023-02-28T15:28:02;7.90;98.70
10964;DHT22;5534;48.784;9.190;2023-02-28T15:30:31;7.80;98.60
10964;DHT22;5534;48.784;9.190;2023-02-28T15:35:39;7.80;98.90
10964;DHT22;5534;48.784;9.190;2023-02-28T15:38:21;7.70;99.00
10964;DHT22;5534;48.784;9.190;2023-02-28T15:40:53;7.70;99.50
10964;DHT22;5534;48.784;9.190;2023-02-28T15:43:29;7.60;99.50
10964;DHT22;5534;48.784;9.190;2023-02-28T15:46:03;7.60;99.40
10964;DHT22;5534;48.784;9.190;2023-02-28T15:48:31;7.50;99.70
10964;DHT22;5534;48.784;9.190;2023-02-28T15:53:35;7.70;99.90
10964;DHT22;5534;48.784;9.190;2023-02-28T15:56:04;7.60;99.70
10964;DHT22;5534;48.784;9.190;2023-02-28T15:58:32;7.60;99.60
10964;DHT22;5534;48.784;9.190;2023-02-28T16:01:08;7.60;99.60
10964;DHT22;5534;48.784;9.190;2023-02-28T16:03:46;7.40;99.90
10964;DHT22;5534;48.784;9.190;2023-02-28T16:09:14;7.40;99.90
10964;DHT22;5534;48.784;9.190;2023-02-28T16:11:46;7.40;99.90
10964;DHT22;5534;48.784;9.190;2023-02-28T16:14:19;7.40;99.90
10964;DHT22;5534;48.784;9.190;2023-02-28T16:16:49;7.20;99.90
10964;DHT22;5534;48.784;9.190;2023-02-28T16:19:15;7.30;99.90
10964;DHT22;5534;48.784;9.190;2023-02-28T16:21:41;7.40;99.90
10964;DHT22;5534;48.784;9.190;2023-02-28T16:24:07;7.30;99.90
10964;DHT22;5534;48.784;9.190;2023-02-28T16:26:33;7.30;99.90
10964;DHT22;5534;48.784;9.190;2023-02-28T16:29:01;7.30;99.90
10964;DHT22;5534;48.784;9.190;2023-02-28T16:31:29;7.20;99.90
10964;DHT22;5534;48.784;9.190;2023-02-28T16:33:55;7.20;99.90
10964;DHT22;5534;48.784;9.190;2023-02-28T16:36:24;7.20;99.90
10964;DHT22;5534;48.784;9.190;2023-02-28T16:38:54;7.00;99.90
10964;DHT22;5534;48.784;9.190;2023-02-28T16:41:25;7.20;99.90
10964;DHT22;5534;48.784;9.190;2023-02-28T16:43:53;7.00;99.90
10964;DHT22;5534;48.784;9.190;2023-02-28T16:46:20;7.00;99.90
10964;DHT22;5534;48.784;9.190;2023-02-28T16:48:46;7.10;99.90
10964;DHT22;5534;48.784;9.190;2023-02-28T16:51:17;7.00;99.90
10964;DHT22;5534;48.784;9.190;2023-02-28T16:53:44;7.00;99.90
10964;DHT22;5534;48.784;9.190;2023-02-28T16:56:19;6.90;99.90
10964;DHT22;5534;48.784;9.190;2023-02-28T16:58:46;6.90;99.90
10964;DHT22;5534;48.784;9.190;2023-02-28T17:01:13;6.90;99.90
10964;DHT22;5534;48.784;9.190;2023-02-28T17:03:39;6.80;99.90
10964;DHT22;5534;48.784;9.190;2023-02-28T17:06:10;6.90;99.90
10964;DHT22;5534;48.784;9.190;2023-02-28T17:08:39;6.80;99.90
10964;DHT22;5534;48.784;9.190;2023-02-28T17:11:04;6.80;99.90
10964;DHT22;5534;48.784;9.190;2023-02-28T17:13:30;6.80;99.90
10964;DHT22;5534;48.784;9.190;2023-02-28T17:15:56;6.70;99.90
10964;DHT22;5534;48.784;9.190;2023-02-28T17:18:22;6.80;99.90
10964;DHT22;5534;48.784;9.190;2023-02-28T17:20:48;6.80;99.90
10964;DHT22;5534;48.784;9.190;2023-02-28T17:23:14;6.80;99.90
10964;DHT22;5534;48.784;9.190;2023-02-28T17:25:39;6.70;99.90
10964;DHT22;5534;48.784;9.190;2023-02-28T17:28:05;6.80;99.90
10964;DHT22;5534;48.784;9.190;2023-02-28T17:30:33;6.70;99.90
10964;DHT22;5534;48.784;9.190;2023-02-28T17:33:00;6.80;99.90
10964;DHT22;5534;48.784;9.190;2023-02-28T17:35:26;6.70;99.90
10964;DHT22;5534;48.784;9.190;2023-02-28T17:37:52;6.60;99.90
10964;DHT22;5534;48.784;9.190;2023-02-28T17:40:21;6.50;99.90
10964;DHT22;5534;48.784;9.190;2023-02-28T17:42:48;6.50;99.90
10964;DHT22;5534;48.784;9.190;2023-02-28T17:45:15;6.50;99.90
10964;DHT22;5534;48.784;9.190;2023-02-28T17:47:42;6.50;99.90
10964;DHT22;5534;48.784;9.190;2023-02-28T17:50:21;6.50;99.90
10964;DHT22;5534;48.784;9.190;2023-02-28T17:52:47;6.40;99.90
10964;DHT22;5534;48.784;9.190;2023-02-28T17:55:16;6.40;99.90
10964;DHT22;5534;48.784;9.190;2023-02-28T17:57:53;6.50;99.90
10964;DHT22;5534;48.784;9.190;2023-02-28T18:00:20;6.50;99.90
10964;DHT22;5534;48.784;9.190;2023-02-28T18:02:49;6.40;99.90
10964;DHT22;5534;48.784;9.190;2023-02-28T18:05:16;6.30;99.90
10964;DHT22;5534;48.784;9.190;2023-02-28T18:07:42;6.30;99.90
10964;DHT22;5534;48.784;9.190;2023-02-28T18:10:19;6.30;99.90
10964;DHT22;5534;48.784;9.190;2023-02-28T18:12:46;6.30;99.90
10964;DHT22;5534;48.784;9.190;2023-02-28T18:15:14;6.30;99.90
10964;DHT22;5534;48.784;9.190;2023-02-28T18:17:41;6.30;99.90
10964;DHT22;5534;48.784;9.190;2023-02-28T18:20:09;6.30;99.90
10964;DHT22;5534;48.784;9.190;2023-02-28T18:22:38;6.30;99.90
10964;DHT22;5534;48.784;9.190;2023-02-28T18:25:05;6.30;99.90
10964;DHT22;5534;48.784;9.190;2023-02-28T18:27:37;6.20;99.90
10964;DHT22;5534;48.784;9.190;2023-02-28T18:30:04;6.20;99.90
10964;DHT22;5534;48.784;9.190;2023-02-28T18:32:31;6.10;99.90
10964;DHT22;5534;48.784;9.190;2023-02-28T18:34:57;6.10;99.90
10964;DHT22;5534;48.784;9.190;2023-02-28T18:37:23;6.10;99.90